Report METAR

LIPF - Ferrara (aut), Italy
Distance from station: SSO 23km
Dati ricevuti: 24/06/2018 19:55
DATI Obsoleti
Sereno
Sereno
 Vento da ESE
Vento: ESE 7 km/h
Temperatura: 23°C
P.to Rugiada: 12°C
Umidità: 50%
Barometro: 1015 hPa
Summary: Sereno
Visibility: superiore a 10 km
2018/06/24 17:55 LIPF 241755Z 12004KT CAVOK 23/12 Q1015
LIPU - Padova (civ/It-A, Italy
Distance from station: N 43km
Dati ricevuti: 24/06/2018 08:00
DATI Obsoleti
Parz. nuvoloso
Parz. nuvoloso
 Vento da Variabile
Vento: Variabile 6 km/h
Temperatura: 19°C
P.to Rugiada: 13°C
Umidità: 68%
Barometro: 1019 hPa
Nuvole: Parz. nuvoloso
Visibility: 10 km
Cloud details: Parz. nuvoloso 2134 m
2018/06/24 06:00 LIPU 240600Z VRB03KT 9999 SCT070 19/13 Q1019